Time;durP1;ratioP1;P1;durP2;ratioP2;P2;SDS_P1;SDS_P2;PMS_P1;PMS_P2;Temp;Humidity;BMP_temperature;BMP_pressure;BME280_temperature;BME280_humidity;BME280_pressure;Samples;Min_cycle;Max_cycle;Signal;HPM_P1;HPM_P2
2023/10/06 00:01:27;;;;;;;11.77;6.10;;;;;;;;;;10486785;28;20040;-83
2023/10/06 00:06:28;;;;;;;14.85;6.88;;;;;;;;;;10487524;28;20106;-84
2023/10/06 00:11:31;;;;;;;13.43;6.50;;;;;;;;;;10486183;28;20434;-82
2023/10/06 00:16:38;;;;;;;13.57;6.68;;;;;;;;;;10484737;28;20041;-82
2023/10/06 00:21:47;;;;;;;12.48;6.53;;;;;;;;;;10486554;28;20127;-82
2023/10/06 00:26:49;;;;;;;15.95;6.68;;;;;;;;;;10485072;28;20115;-83
2023/10/06 00:31:50;;;;;;;12.82;6.45;;;;;;;;;;10485478;28;20036;-84
2023/10/06 00:36:56;;;;;;;12.18;5.97;;;;;;;;;;10485256;28;20036;-83
2023/10/06 00:42:04;;;;;;;;;;;;;;;;;;10485844;28;20036;-83
2023/10/06 00:47:06;;;;;;;15.23;5.53;;;;;;;;;;10484849;28;19912;-83
2023/10/06 00:52:08;;;;;;;15.95;6.88;;;;;;;;;;10484087;28;20028;-83
2023/10/06 00:57:10;;;;;;;13.23;6.20;;;;;;;;;;10485188;28;20139;-82
2023/10/06 01:02:11;;;;;;;12.48;6.10;;;;;;;;;;10484168;28;20032;-83
2023/10/06 01:07:13;;;;;;;12.07;6.30;;;;;;;;;;10482844;28;20057;-83
2023/10/06 01:12:19;;;;;;;9.77;5.45;;;;;;;;;;10471627;28;20622;-84
2023/10/06 01:17:20;;;;;;;15.52;6.25;;;;;;;;;;10476590;28;20123;-84
2023/10/06 01:22:24;;;;;;;15.18;6.53;;;;;;;;;;10484463;28;20059;-83
2023/10/06 01:27:29;;;;;;;16.63;6.43;;;;;;;;;;10486277;28;20012;-83
2023/10/06 01:32:30;;;;;;;12.95;6.35;;;;;;;;;;10492638;28;20032;-82
2023/10/06 01:37:31;;;;;;;15.57;5.93;;;;;;;;;;10492147;28;20136;-82
2023/10/06 01:42:34;;;;;;;11.63;6.40;;;;;;;;;;10493236;28;20119;-83
2023/10/06 01:47:35;;;;;;;12.02;6.30;;;;;;;;;;10471972;28;20376;-82
2023/10/06 01:52:39;;;;;;;13.40;6.85;;;;;;;;;;10491391;28;20029;-83
2023/10/06 01:57:40;;;;;;;12.60;6.95;;;;;;;;;;10491910;28;20648;-83
2023/10/06 02:02:41;;;;;;;11.27;5.90;;;;;;;;;;10490699;28;20040;-82
2023/10/06 02:07:44;;;;;;;12.63;6.93;;;;;;;;;;10490825;28;20118;-84
2023/10/06 02:12:45;;;;;;;13.63;6.70;;;;;;;;;;10490784;28;20020;-84
2023/10/06 02:17:49;;;;;;;13.50;6.03;;;;;;;;;;10490356;28;20028;-83
2023/10/06 02:22:55;;;;;;;12.25;6.53;;;;;;;;;;10490585;28;20045;-83
2023/10/06 02:27:59;;;;;;;9.27;5.70;;;;;;;;;;10490285;28;20464;-84
2023/10/06 02:33:00;;;;;;;11.82;6.40;;;;;;;;;;10480397;28;20025;-82
2023/10/06 02:38:05;;;;;;;12.20;7.20;;;;;;;;;;10486477;28;20036;-82
2023/10/06 02:43:09;;;;;;;14.57;7.70;;;;;;;;;;10463920;28;20062;-83
2023/10/06 02:48:21;;;;;;;13.48;6.75;;;;;;;;;;10489462;28;20020;-82
2023/10/06 02:53:23;;;;;;;14.43;7.85;;;;;;;;;;10489787;28;20093;-84
2023/10/06 02:58:27;;;;;;;13.00;7.15;;;;;;;;;;10489007;28;20067;-83
2023/10/06 03:03:28;;;;;;;10.93;7.60;;;;;;;;;;10489092;28;20086;-81
2023/10/06 03:08:30;;;;;;;11.63;6.32;;;;;;;;;;10488294;28;20060;-83
2023/10/06 03:13:36;;;;;;;9.93;4.85;;;;;;;;;;10488290;28;20028;-83
2023/10/06 03:18:37;;;;;;;15.32;7.10;;;;;;;;;;10488641;28;20032;-83
2023/10/06 03:23:38;;;;;;;11.07;5.07;;;;;;;;;;10475416;28;20116;-83
2023/10/06 03:28:43;;;;;;;12.00;6.28;;;;;;;;;;10488675;28;20028;-84
2023/10/06 03:33:44;;;;;;;10.32;5.40;;;;;;;;;;10487750;28;20028;-89
2023/10/06 03:39:05;;;;;;;11.63;6.55;;;;;;;;;;10486124;28;20037;-86
2023/10/06 03:44:12;;;;;;;10.93;4.28;;;;;;;;;;10463507;28;20480;-85
2023/10/06 03:49:13;;;;;;;13.75;6.60;;;;;;;;;;10486112;28;20025;-83
2023/10/06 03:54:15;;;;;;;10.00;5.85;;;;;;;;;;10482098;28;20024;-82
2023/10/06 03:59:17;;;;;;;12.75;6.95;;;;;;;;;;10477759;28;20046;-83
2023/10/06 04:04:22;;;;;;;17.45;7.63;;;;;;;;;;10486455;28;20093;-84
2023/10/06 04:09:33;;;;;;;21.08;8.30;;;;;;;;;;10486699;28;20872;-82
2023/10/06 04:14:35;;;;;;;16.67;7.60;;;;;;;;;;10486721;28;20463;-82
2023/10/06 04:19:36;;;;;;;19.10;9.02;;;;;;;;;;10486461;28;20119;-82
2023/10/06 04:24:37;;;;;;;14.00;7.40;;;;;;;;;;10485986;28;20073;-87
2023/10/06 04:29:40;;;;;;;15.43;7.87;;;;;;;;;;10485837;28;20032;-83
2023/10/06 04:34:41;;;;;;;14.00;8.77;;;;;;;;;;10485987;28;20059;-82
2023/10/06 04:39:51;;;;;;;13.47;7.93;;;;;;;;;;10486137;28;20047;-87
2023/10/06 04:44:54;;;;;;;16.25;10.25;;;;;;;;;;10472777;28;20029;-83
2023/10/06 04:50:02;;;;;;;16.65;11.02;;;;;;;;;;10485908;28;20067;-83
2023/10/06 04:55:16;;;;;;;20.20;10.93;;;;;;;;;;10485283;28;20450;-83
2023/10/06 05:00:21;;;;;;;21.10;10.07;;;;;;;;;;10484911;28;20036;-82
2023/10/06 05:05:22;;;;;;;19.90;9.23;;;;;;;;;;10485811;28;20036;-82
2023/10/06 05:10:25;;;;;;;18.58;9.85;;;;;;;;;;10484396;28;20068;-83
2023/10/06 05:15:26;;;;;;;19.33;9.68;;;;;;;;;;10485058;28;20033;-82
2023/10/06 05:20:29;;;;;;;22.58;9.68;;;;;;;;;;10484784;28;20037;-81
2023/10/06 05:25:30;;;;;;;18.67;10.23;;;;;;;;;;10467186;28;20361;-82
2023/10/06 05:30:31;;;;;;;21.98;11.57;;;;;;;;;;10484478;28;20058;-82
2023/10/06 05:35:40;;;;;;;20.33;11.57;;;;;;;;;;10484885;28;20031;-82
2023/10/06 05:40:42;;;;;;;18.02;11.48;;;;;;;;;;10484198;28;20123;-84
2023/10/06 05:45:56;;;;;;;22.15;11.80;;;;;;;;;;10484663;28;20048;-83
2023/10/06 05:51:04;;;;;;;14.52;10.35;;;;;;;;;;10484016;28;20162;-82
2023/10/06 05:56:07;;;;;;;18.98;11.63;;;;;;;;;;10484352;28;20024;-82
2023/10/06 06:01:13;;;;;;;16.25;10.70;;;;;;;;;;10466167;28;20044;-82
2023/10/06 06:06:26;;;;;;;14.15;9.05;;;;;;;;;;10483521;28;20051;-86
2023/10/06 06:11:28;;;;;;;18.40;11.48;;;;;;;;;;10483747;28;20115;-85
2023/10/06 06:16:30;;;;;;;18.38;10.70;;;;;;;;;;10488995;28;20488;-83
2023/10/06 06:21:32;;;;;;;17.52;10.63;;;;;;;;;;10472716;28;20686;-82
2023/10/06 06:26:33;;;;;;;18.05;8.88;;;;;;;;;;10490889;28;20044;-82
2023/10/06 06:31:35;;;;;;;15.48;8.85;;;;;;;;;;10490511;28;20033;-83
2023/10/06 06:36:36;;;;;;;14.82;8.93;;;;;;;;;;10491173;28;20027;-82
2023/10/06 06:41:37;;;;;;;16.58;8.90;;;;;;;;;;10489865;28;20068;-82
2023/10/06 06:46:38;;;;;;;12.35;7.70;;;;;;;;;;10490059;28;20020;-83
2023/10/06 06:51:40;;;;;;;14.13;8.35;;;;;;;;;;10490098;28;20016;-82
2023/10/06 06:56:41;;;;;;;14.07;8.25;;;;;;;;;;10489591;28;20107;-82
2023/10/06 07:01:42;;;;;;;13.50;8.02;;;;;;;;;;10489568;28;20384;-83
2023/10/06 07:06:43;;;;;;;13.48;8.40;;;;;;;;;;10488719;28;20051;-84
2023/10/06 07:11:44;;;;;;;16.63;8.85;;;;;;;;;;10470913;28;20029;-83
2023/10/06 07:16:47;;;;;;;14.77;9.02;;;;;;;;;;10489909;28;20044;-87
2023/10/06 07:21:49;;;;;;;16.13;8.68;;;;;;;;;;10489277;28;20099;-87
2023/10/06 07:26:50;;;;;;;14.90;8.98;;;;;;;;;;10487427;28;20114;-83
2023/10/06 07:31:53;;;;;;;16.98;9.95;;;;;;;;;;10488278;28;20516;-82
2023/10/06 07:36:56;;;;;;;18.98;10.48;;;;;;;;;;10488321;28;20480;-82
2023/10/06 07:41:57;;;;;;;19.60;10.95;;;;;;;;;;10487394;28;20576;-83
2023/10/06 07:46:58;;;;;;;17.83;10.80;;;;;;;;;;10487989;28;20587;-82
2023/10/06 07:51:59;;;;;;;19.42;10.18;;;;;;;;;;10487227;28;20039;-82
2023/10/06 07:57:01;;;;;;;12.85;7.80;;;;;;;;;;10486974;28;20036;-82
2023/10/06 08:02:03;;;;;;;15.50;8.23;;;;;;;;;;10487341;28;20624;-83
2023/10/06 08:07:05;;;;;;;12.75;7.38;;;;;;;;;;10486690;28;20061;-82
2023/10/06 08:12:08;;;;;;;10.18;6.43;;;;;;;;;;10487147;28;20047;-82
2023/10/06 08:17:09;;;;;;;11.38;6.13;;;;;;;;;;10486129;28;20131;-84
2023/10/06 08:22:10;;;;;;;12.07;4.95;;;;;;;;;;10486008;28;20751;-82
2023/10/06 08:27:11;;;;;;;8.15;4.30;;;;;;;;;;10486026;28;20078;-82
2023/10/06 08:32:12;;;;;;;9.25;4.03;;;;;;;;;;10485358;28;20024;-86
2023/10/06 08:37:15;;;;;;;7.35;3.63;;;;;;;;;;10485450;28;20032;-82
2023/10/06 08:42:16;;;;;;;10.32;3.70;;;;;;;;;;10485114;28;20552;-82
2023/10/06 08:47:18;;;;;;;8.13;3.78;;;;;;;;;;10486484;28;20135;-83
2023/10/06 08:52:22;;;;;;;7.35;3.40;;;;;;;;;;10485455;28;20064;-85
2023/10/06 08:57:24;;;;;;;8.88;3.60;;;;;;;;;;10485251;28;20484;-82
2023/10/06 09:02:25;;;;;;;9.15;3.63;;;;;;;;;;10466924;28;20131;-82
2023/10/06 09:07:26;;;;;;;4.57;3.20;;;;;;;;;;10484669;28;20064;-81
2023/10/06 09:12:31;;;;;;;4.85;2.95;;;;;;;;;;10484811;28;20024;-82
2023/10/06 09:17:33;;;;;;;7.68;2.92;;;;;;;;;;10484787;28;20115;-82
2023/10/06 09:22:49;;;;;;;9.57;3.60;;;;;;;;;;10485389;28;20071;-83
2023/10/06 09:28:03;;;;;;;6.88;3.67;;;;;;;;;;10484203;28;20095;-83
2023/10/06 09:33:04;;;;;;;9.65;3.63;;;;;;;;;;10466696;28;20032;-88
2023/10/06 09:38:13;;;;;;;9.90;3.20;;;;;;;;;;10484711;28;20024;-83
2023/10/06 09:43:15;;;;;;;8.93;3.13;;;;;;;;;;10484110;28;20068;-82
2023/10/06 09:48:18;;;;;;;8.27;2.72;;;;;;;;;;10485026;28;20024;-81
2023/10/06 09:53:20;;;;;;;6.32;2.45;;;;;;;;;;10491771;28;20027;-82
2023/10/06 09:58:22;;;;;;;6.53;2.90;;;;;;;;;;10492055;28;20032;-82
2023/10/06 10:03:23;;;;;;;5.65;2.33;;;;;;;;;;10491703;28;20063;-83
2023/10/06 10:08:25;;;;;;;6.75;2.55;;;;;;;;;;10473028;28;20139;-82
2023/10/06 10:13:52;;;;;;;6.72;2.40;;;;;;;;;;10491186;28;20028;-81
2023/10/06 10:18:58;;;;;;;8.60;3.00;;;;;;;;;;10491136;28;20039;-82
2023/10/06 10:24:03;;;;;;;;;;;;;;;;;;10473143;28;20056;-83
2023/10/06 10:29:13;;;;;;;5.30;2.50;;;;;;;;;;10490467;28;19911;-82
2023/10/06 10:34:25;;;;;;;7.32;2.75;;;;;;;;;;10490361;28;20090;-82
2023/10/06 10:39:27;;;;;;;4.97;2.67;;;;;;;;;;10490318;28;20064;-82
2023/10/06 10:44:28;;;;;;;6.30;2.92;;;;;;;;;;10490090;28;20105;-82
2023/10/06 10:49:35;;;;;;;4.80;2.30;;;;;;;;;;10490175;28;20533;-82
2023/10/06 10:54:40;;;;;;;7.07;2.63;;;;;;;;;;10476978;28;20047;-81
2023/10/06 11:00:00;;;;;;;6.63;2.80;;;;;;;;;;10489042;28;20482;-82
2023/10/06 11:05:02;;;;;;;5.75;2.63;;;;;;;;;;10489447;28;20082;-82
2023/10/06 11:10:04;;;;;;;4.70;2.38;;;;;;;;;;10488369;28;20138;-82
2023/10/06 11:15:14;;;;;;;7.15;3.05;;;;;;;;;;10489041;28;20025;-80
2023/10/06 11:20:33;;;;;;;5.05;2.80;;;;;;;;;;10489208;28;20036;-80
2023/10/06 11:25:38;;;;;;;5.32;2.78;;;;;;;;;;10477064;28;20024;-86
2023/10/06 11:30:40;;;;;;;3.92;2.40;;;;;;;;;;10488437;28;20017;-82
2023/10/06 11:35:42;;;;;;;8.20;2.45;;;;;;;;;;10487871;28;20036;-81
2023/10/06 11:40:43;;;;;;;7.80;2.85;;;;;;;;;;10487711;28;20032;-85
2023/10/06 11:45:46;;;;;;;5.90;3.53;;;;;;;;;;10487632;28;20021;-81
2023/10/06 11:50:47;;;;;;;8.80;3.30;;;;;;;;;;10487550;28;20103;-82
2023/10/06 11:55:48;;;;;;;12.68;3.75;;;;;;;;;;10487522;28;20032;-83
2023/10/06 12:00:49;;;;;;;7.90;4.20;;;;;;;;;;10487497;28;20051;-81
2023/10/06 12:05:56;;;;;;;7.93;3.30;;;;;;;;;;10488036;28;20043;-82
2023/10/06 12:11:03;;;;;;;9.60;4.03;;;;;;;;;;10485239;28;20205;-85
2023/10/06 12:16:14;;;;;;;8.05;3.63;;;;;;;;;;10486744;28;20032;-82
2023/10/06 12:21:15;;;;;;;6.43;2.92;;;;;;;;;;10485976;28;20047;-82
2023/10/06 12:26:16;;;;;;;5.60;2.70;;;;;;;;;;10485574;28;20032;-82
2023/10/06 12:31:17;;;;;;;4.40;2.70;;;;;;;;;;10485848;28;20468;-82
2023/10/06 12:36:18;;;;;;;7.18;2.65;;;;;;;;;;10485830;28;20111;-83
2023/10/06 12:41:20;;;;;;;6.93;3.30;;;;;;;;;;10486161;28;20067;-81
2023/10/06 12:46:22;;;;;;;5.90;3.33;;;;;;;;;;10485274;28;20029;-82
2023/10/06 12:51:23;;;;;;;6.35;3.30;;;;;;;;;;10484138;28;20571;-82
2023/10/06 12:56:31;;;;;;;7.78;3.25;;;;;;;;;;10484598;28;20021;-84
2023/10/06 13:01:32;;;;;;;4.93;2.50;;;;;;;;;;10484048;28;20036;-84
2023/10/06 13:06:33;;;;;;;5.20;3.10;;;;;;;;;;10484810;28;20031;-81
2023/10/06 13:11:34;;;;;;;4.38;3.00;;;;;;;;;;10482024;28;20392;-86
2023/10/06 13:16:35;;;;;;;5.38;2.55;;;;;;;;;;10489062;28;20035;-82
2023/10/06 13:21:36;;;;;;;4.68;2.75;;;;;;;;;;10488911;28;20047;-82
2023/10/06 13:26:42;;;;;;;3.55;2.50;;;;;;;;;;10489619;28;20353;-85
2023/10/06 13:31:44;;;;;;;3.72;2.42;;;;;;;;;;10487087;28;20354;-82
2023/10/06 13:36:47;;;;;;;5.10;3.58;;;;;;;;;;10484843;28;20272;-83
2023/10/06 13:41:49;;;;;;;3.97;2.60;;;;;;;;;;10468880;28;20045;-82
2023/10/06 13:46:52;;;;;;;6.50;2.80;;;;;;;;;;10487023;28;20035;-85
2023/10/06 13:51:53;;;;;;;7.60;2.67;;;;;;;;;;10492747;28;20049;-83
2023/10/06 13:56:57;;;;;;;4.88;2.60;;;;;;;;;;10492009;28;20028;-83
2023/10/06 14:01:58;;;;;;;6.68;2.80;;;;;;;;;;10491754;28;20345;-82
2023/10/06 14:07:02;;;;;;;7.25;2.80;;;;;;;;;;10490138;28;20061;-82
2023/10/06 14:12:07;;;;;;;6.30;2.72;;;;;;;;;;10483381;28;20142;-82
2023/10/06 14:17:16;;;;;;;5.38;2.83;;;;;;;;;;10480521;28;20546;-85
2023/10/06 14:22:21;;;;;;;5.88;2.88;;;;;;;;;;10459446;28;20032;-83
2023/10/06 14:27:22;;;;;;;6.75;2.90;;;;;;;;;;10489442;28;20039;-83
2023/10/06 14:32:39;;;;;;;4.80;2.80;;;;;;;;;;10490273;28;20506;-82
2023/10/06 14:37:42;;;;;;;4.55;2.55;;;;;;;;;;10489809;28;20037;-79
2023/10/06 14:48:03;;;;;;;6.72;3.30;;;;;;;;;;10487252;28;20041;-81
2023/10/06 14:53:04;;;;;;;8.63;3.55;;;;;;;;;;10487132;28;20507;-82
2023/10/06 14:58:07;;;;;;;6.95;3.05;;;;;;;;;;10489684;28;20115;-81
2023/10/06 15:03:09;;;;;;;6.35;3.22;;;;;;;;;;10489724;28;20036;-81
2023/10/06 15:08:12;;;;;;;6.15;3.67;;;;;;;;;;10486603;28;20064;-80
2023/10/06 15:13:13;;;;;;;6.00;3.22;;;;;;;;;;10470783;28;20047;-81
2023/10/06 15:18:21;;;;;;;4.63;3.40;;;;;;;;;;10489595;28;20033;-80
2023/10/06 15:23:22;;;;;;;7.90;3.75;;;;;;;;;;10487878;28;20048;-81
2023/10/06 15:28:31;;;;;;;7.35;3.53;;;;;;;;;;10486289;28;20036;-86
2023/10/06 15:33:33;;;;;;;5.90;3.67;;;;;;;;;;10475580;28;20032;-81
2023/10/06 15:38:34;;;;;;;10.05;5.10;;;;;;;;;;10469801;28;20123;-82
2023/10/06 15:43:36;;;;;;;11.93;4.78;;;;;;;;;;10487421;28;20052;-88
2023/10/06 15:48:40;;;;;;;15.32;6.95;;;;;;;;;;10486886;28;20140;-81
2023/10/06 15:53:42;;;;;;;10.82;6.03;;;;;;;;;;10487246;28;20044;-83
2023/10/06 15:58:47;;;;;;;16.67;10.80;;;;;;;;;;10486733;28;20037;-86
2023/10/06 16:03:52;;;;;;;10.63;5.28;;;;;;;;;;10479753;28;20043;-81
2023/10/06 16:09:00;;;;;;;10.77;5.43;;;;;;;;;;10477910;28;20057;-83
2023/10/06 16:14:08;;;;;;;8.20;5.13;;;;;;;;;;10485957;28;20029;-81
2023/10/06 16:19:11;;;;;;;13.75;7.80;;;;;;;;;;10474090;28;20074;-81
2023/10/06 16:24:13;;;;;;;23.00;12.55;;;;;;;;;;10488434;28;20503;-81
2023/10/06 16:29:16;;;;;;;11.85;6.35;;;;;;;;;;10475535;28;20064;-86
2023/10/06 16:34:18;;;;;;;8.68;5.20;;;;;;;;;;10462958;28;20040;-81
2023/10/06 16:39:21;;;;;;;16.45;7.00;;;;;;;;;;10485381;28;20063;-81
2023/10/06 16:44:23;;;;;;;12.57;5.75;;;;;;;;;;10472350;28;20029;-83
2023/10/06 16:49:31;;;;;;;14.52;7.07;;;;;;;;;;10483522;28;20033;-82
2023/10/06 16:54:39;;;;;;;12.15;6.15;;;;;;;;;;10490047;28;20028;-84
2023/10/06 16:59:40;;;;;;;23.05;10.98;;;;;;;;;;10483978;28;20039;-81
2023/10/06 17:04:41;;;;;;;31.30;14.77;;;;;;;;;;10483166;28;20640;-82
2023/10/06 17:09:43;;;;;;;15.05;8.65;;;;;;;;;;10484261;28;20053;-81
2023/10/06 17:14:52;;;;;;;11.70;6.53;;;;;;;;;;10478620;28;20081;-83
2023/10/06 17:19:53;;;;;;;10.65;6.35;;;;;;;;;;10481851;28;20058;-83
2023/10/06 17:24:58;;;;;;;12.57;6.97;;;;;;;;;;10458254;28;20032;-81
2023/10/06 17:29:58;;;;;;;10.85;6.05;;;;;;;;;;10478914;28;20036;-81
2023/10/06 17:35:00;;;;;;;10.43;6.28;;;;;;;;;;10473201;28;20039;-81
2023/10/06 17:40:01;;;;;;;14.30;6.00;;;;;;;;;;10479188;28;20095;-80
2023/10/06 17:45:02;;;;;;;15.90;6.28;;;;;;;;;;10465308;28;20037;-81
2023/10/06 17:50:04;;;;;;;11.30;6.18;;;;;;;;;;10484149;28;20050;-85
2023/10/06 17:55:08;;;;;;;11.90;6.68;;;;;;;;;;10483788;28;20020;-80
2023/10/06 18:00:11;;;;;;;10.97;6.70;;;;;;;;;;10478603;28;20041;-82
2023/10/06 18:05:12;;;;;;;11.02;5.82;;;;;;;;;;10482345;28;20040;-82
2023/10/06 18:10:15;;;;;;;11.48;5.75;;;;;;;;;;10462972;28;20056;-86
2023/10/06 18:15:18;;;;;;;12.10;5.15;;;;;;;;;;10455537;28;20063;-82
2023/10/06 18:20:19;;;;;;;8.98;5.15;;;;;;;;;;10471568;28;20149;-81
2023/10/06 18:25:21;;;;;;;9.82;4.70;;;;;;;;;;10488778;28;20365;-83
2023/10/06 18:30:22;;;;;;;10.45;5.85;;;;;;;;;;10489910;28;20412;-81
2023/10/06 18:35:23;;;;;;;11.18;5.15;;;;;;;;;;10471296;28;20032;-86
2023/10/06 18:40:24;;;;;;;11.15;5.70;;;;;;;;;;10489421;28;20028;-81
2023/10/06 18:45:25;;;;;;;13.40;5.65;;;;;;;;;;10474697;28;20024;-81
2023/10/06 18:50:29;;;;;;;10.65;5.50;;;;;;;;;;10489104;28;20036;-82
2023/10/06 18:55:37;;;;;;;9.00;4.85;;;;;;;;;;10468888;28;20531;-85
2023/10/06 19:00:38;;;;;;;9.45;5.05;;;;;;;;;;10485339;28;20041;-82
2023/10/06 19:05:43;;;;;;;7.30;4.05;;;;;;;;;;10489318;28;20028;-84
2023/10/06 19:10:45;;;;;;;7.93;4.97;;;;;;;;;;10476397;28;20067;-83
2023/10/06 19:15:47;;;;;;;9.60;5.70;;;;;;;;;;10474349;28;20020;-82
2023/10/06 19:20:50;;;;;;;8.77;4.43;;;;;;;;;;10489073;28;20021;-83
2023/10/06 19:25:54;;;;;;;9.68;4.70;;;;;;;;;;10487631;28;20024;-82
2023/10/06 19:30:55;;;;;;;12.20;5.22;;;;;;;;;;10488036;28;20112;-81
2023/10/06 19:36:00;;;;;;;6.72;4.13;;;;;;;;;;10483307;28;20020;-81
2023/10/06 19:41:01;;;;;;;9.95;4.07;;;;;;;;;;10482796;28;20067;-81
2023/10/06 19:46:09;;;;;;;9.32;4.30;;;;;;;;;;10469293;28;20551;-84
2023/10/06 19:51:12;;;;;;;6.93;3.92;;;;;;;;;;10485762;28;20484;-85
2023/10/06 19:56:13;;;;;;;6.07;3.83;;;;;;;;;;10469484;28;20028;-82
2023/10/06 20:01:19;;;;;;;7.15;3.72;;;;;;;;;;10487697;28;20044;-80
2023/10/06 20:06:20;;;;;;;;;;;;;;;;;;10488610;28;20024;-81
2023/10/06 20:11:21;;;;;;;11.57;3.83;;;;;;;;;;10492356;28;19930;-81
2023/10/06 20:16:23;;;;;;;6.25;3.60;;;;;;;;;;10467979;28;20024;-80
2023/10/06 20:21:25;;;;;;;6.38;3.78;;;;;;;;;;10485032;28;20131;-81
2023/10/06 20:26:27;;;;;;;6.50;3.83;;;;;;;;;;10483236;28;20041;-84
2023/10/06 20:31:29;;;;;;;8.98;4.03;;;;;;;;;;10479117;28;20032;-82
2023/10/06 20:36:30;;;;;;;7.88;3.72;;;;;;;;;;10485684;28;20024;-82
2023/10/06 20:41:31;;;;;;;8.55;3.97;;;;;;;;;;10484808;28;20067;-81
2023/10/06 20:46:32;;;;;;;10.23;4.25;;;;;;;;;;10480050;28;20055;-82
2023/10/06 20:51:33;;;;;;;8.80;4.70;;;;;;;;;;10485159;28;20028;-82
2023/10/06 20:56:34;;;;;;;10.65;4.03;;;;;;;;;;10485512;28;20068;-81
2023/10/06 21:01:35;;;;;;;10.20;4.32;;;;;;;;;;10485379;28;20028;-84
2023/10/06 21:06:37;;;;;;;9.77;3.80;;;;;;;;;;10485538;28;20052;-81
2023/10/06 21:11:39;;;;;;;8.05;3.45;;;;;;;;;;10485103;28;20059;-81
2023/10/06 21:16:44;;;;;;;6.63;3.63;;;;;;;;;;10466083;28;20055;-82
2023/10/06 21:21:45;;;;;;;7.25;3.78;;;;;;;;;;10484121;28;20040;-85
2023/10/06 21:26:46;;;;;;;6.45;3.65;;;;;;;;;;10483992;28;20839;-81
2023/10/06 21:31:47;;;;;;;7.32;4.28;;;;;;;;;;10484245;28;20029;-83
2023/10/06 21:36:49;;;;;;;8.50;4.30;;;;;;;;;;10466496;28;20123;-81
2023/10/06 21:41:50;;;;;;;8.43;3.80;;;;;;;;;;10462421;28;20405;-82
2023/10/06 21:46:51;;;;;;;7.68;3.38;;;;;;;;;;10490148;28;20009;-85
2023/10/06 21:51:52;;;;;;;8.23;3.83;;;;;;;;;;10492025;28;20458;-81
2023/10/06 21:56:53;;;;;;;7.32;3.72;;;;;;;;;;10491500;28;20024;-81
2023/10/06 22:01:54;;;;;;;8.05;3.22;;;;;;;;;;10490835;28;20055;-84
2023/10/06 22:06:55;;;;;;;8.23;4.00;;;;;;;;;;10486050;28;20056;-82
2023/10/06 22:11:58;;;;;;;9.60;3.30;;;;;;;;;;10491067;28;20059;-83
2023/10/06 22:16:59;;;;;;;8.10;4.03;;;;;;;;;;10491078;28;20107;-81
2023/10/06 22:22:00;;;;;;;7.82;3.40;;;;;;;;;;10491104;28;20033;-82
2023/10/06 22:27:06;;;;;;;7.57;3.78;;;;;;;;;;10490154;28;20036;-82
2023/10/06 22:32:07;;;;;;;;;;;;;;;;;;10490816;28;20383;-81
2023/10/06 22:37:08;;;;;;;6.65;3.22;;;;;;;;;;10472617;28;20280;-81
2023/10/06 22:42:10;;;;;;;8.63;3.78;;;;;;;;;;10489231;28;20043;-81
2023/10/06 22:47:11;;;;;;;7.07;3.20;;;;;;;;;;10489501;28;20506;-85
2023/10/06 22:52:14;;;;;;;4.72;3.10;;;;;;;;;;10471124;28;20043;-84
2023/10/06 22:57:22;;;;;;;9.02;3.10;;;;;;;;;;10489229;28;20037;-84
2023/10/06 23:02:23;;;;;;;8.27;3.67;;;;;;;;;;10489554;28;20064;-81
2023/10/06 23:07:31;;;;;;;7.72;3.55;;;;;;;;;;10489293;28;20032;-81
2023/10/06 23:12:39;;;;;;;7.10;3.13;;;;;;;;;;10482283;28;20044;-84
2023/10/06 23:17:40;;;;;;;10.25;3.28;;;;;;;;;;10486058;28;20695;-81
2023/10/06 23:22:44;;;;;;;14.68;6.07;;;;;;;;;;10488913;28;20033;-81
2023/10/06 23:27:47;;;;;;;15.93;5.95;;;;;;;;;;10488249;28;20456;-81
2023/10/06 23:32:50;;;;;;;11.55;5.88;;;;;;;;;;10488132;28;20569;-82
2023/10/06 23:37:55;;;;;;;16.25;6.63;;;;;;;;;;10487903;28;20336;-86
2023/10/06 23:42:56;;;;;;;13.48;5.80;;;;;;;;;;10488041;28;20045;-81
2023/10/06 23:47:57;;;;;;;9.35;4.45;;;;;;;;;;10487803;28;20033;-81
2023/10/06 23:53:02;;;;;;;7.70;3.97;;;;;;;;;;10487679;28;20119;-81
2023/10/06 23:58:05;;;;;;;8.50;3.58;;;;;;;;;;10487444;28;20032;-82
